Time;durP1;ratioP1;P1;durP2;ratioP2;P2;SDS_P1;SDS_P2;PMS_P1;PMS_P2;Temp;Humidity;BMP_temperature;BMP_pressure;BME280_temperature;BME280_humidity;BME280_pressure;Samples;Min_cycle;Max_cycle;Signal;HPM_P1;HPM_P2
2021/10/25 00:00:19;;;;;;;1.17;1.08;;;6.40;79.70;;;;;;6186962;23;19994;-96
2021/10/25 00:06:04;;;;;;;1.23;1.13;;;6.40;79.60;;;;;;6158378;23;19993;-95
2021/10/25 00:08:39;;;;;;;2.20;0.77;;;6.40;79.20;;;;;;6154247;23;19997;-96
2021/10/25 00:11:07;;;;;;;1.17;1.05;;;6.40;77.70;;;;;;6188768;23;19997;-95
2021/10/25 00:13:39;;;;;;;1.42;1.23;;;6.30;78.30;;;;;;6189417;23;20008;-95
2021/10/25 00:16:18;;;;;;;1.10;0.80;;;6.30;78.50;;;;;;6186048;23;20085;-95
2021/10/25 00:18:51;;;;;;;1.10;0.98;;;6.30;78.80;;;;;;6188834;23;19993;-96
2021/10/25 00:21:20;;;;;;;1.05;0.80;;;6.30;79.10;;;;;;6167724;23;19998;-95
2021/10/25 00:23:50;;;;;;;1.30;1.02;;;6.30;79.00;;;;;;6191061;23;19998;-95
2021/10/25 00:26:24;;;;;;;1.70;0.98;;;6.20;79.00;;;;;;6190533;23;19998;-96
2021/10/25 00:29:09;;;;;;;1.60;0.97;;;6.20;79.00;;;;;;6188801;23;19997;-95
2021/10/25 00:31:43;;;;;;;1.00;0.95;;;6.20;78.20;;;;;;6163983;23;20017;-95
2021/10/25 00:34:21;;;;;;;1.45;1.20;;;6.20;78.50;;;;;;6188762;23;19993;-96
2021/10/25 00:37:02;;;;;;;2.70;1.15;;;6.20;78.30;;;;;;6187107;23;20010;-94
2021/10/25 00:39:33;;;;;;;1.23;1.10;;;6.20;78.40;;;;;;6184446;23;20010;-94
2021/10/25 00:42:02;;;;;;;1.65;1.23;;;6.20;78.80;;;;;;6189613;23;20006;-95
2021/10/25 00:44:52;;;;;;;1.38;1.25;;;6.20;78.20;;;;;;6190244;23;20052;-95
2021/10/25 00:47:38;;;;;;;;;;;;;;;;;;;;;
2021/10/25 00:50:07;;;;;;;1.05;0.70;;;6.20;78.60;;;;;;6180636;23;19998;-94
2021/10/25 00:52:36;;;;;;;1.20;1.10;;;6.20;78.60;;;;;;6207704;23;20029;-94
2021/10/25 00:55:13;;;;;;;1.23;1.13;;;6.20;78.60;;;;;;6208138;23;19996;-96
2021/10/25 00:57:59;;;;;;;1.65;1.23;;;6.20;78.40;;;;;;6209063;23;20073;-94
2021/10/25 01:00:47;;;;;;;1.73;0.90;;;6.10;78.90;;;;;;6209254;23;20009;-95
2021/10/25 01:03:13;;;;;;;2.65;1.17;;;6.20;79.00;;;;;;6204747;23;20543;-96
2021/10/25 01:06:07;;;;;;;1.17;1.08;;;6.10;79.20;;;;;;6186315;23;20004;-95
2021/10/25 01:08:46;;;;;;;1.40;1.30;;;6.10;79.70;;;;;;6185950;23;20421;-95
2021/10/25 01:11:14;;;;;;;1.08;0.80;;;6.10;79.80;;;;;;6187720;23;20003;-95
2021/10/25 01:13:40;;;;;;;1.42;1.20;;;6.00;79.90;;;;;;6186042;23;20355;-95
2021/10/25 01:16:22;;;;;;;;;;;;;;;;;;;;;
2021/10/25 01:18:56;;;;;;;2.53;1.38;;;6.00;80.40;;;;;;6161437;23;20356;-95
2021/10/25 01:21:25;;;;;;;1.35;1.25;;;6.00;80.30;;;;;;6186147;23;20432;-95
2021/10/25 01:23:54;;;;;;;0.95;0.88;;;6.00;80.40;;;;;;6186930;23;20032;-96
2021/10/25 01:26:23;;;;;;;1.65;1.02;;;5.90;80.00;;;;;;6185866;23;20004;-95
2021/10/25 01:28:51;;;;;;;2.10;1.38;;;5.90;79.50;;;;;;6184100;23;19997;-95
2021/10/25 01:31:18;;;;;;;1.45;1.10;;;5.90;79.60;;;;;;6191578;23;20005;-96
2021/10/25 01:33:50;;;;;;;0.85;0.80;;;5.80;78.70;;;;;;6165547;23;20000;-95
2021/10/25 01:36:38;;;;;;;1.27;1.10;;;5.80;78.80;;;;;;6165672;23;19997;-95
2021/10/25 01:39:12;;;;;;;1.58;1.02;;;5.80;78.30;;;;;;6165882;23;20317;-94
2021/10/25 01:41:43;;;;;;;0.70;0.70;;;5.80;78.00;;;;;;6164364;23;20005;-95
2021/10/25 01:44:11;;;;;;;1.20;1.05;;;5.80;78.50;;;;;;6191757;23;20004;-95
2021/10/25 01:46:40;;;;;;;1.17;1.08;;;5.80;78.80;;;;;;6164738;23;20063;-94
2021/10/25 01:49:32;;;;;;;1.35;0.98;;;5.70;79.10;;;;;;6164352;23;19997;-95
2021/10/25 01:52:00;;;;;;;2.03;1.75;;;5.80;79.70;;;;;;6168287;23;20001;-94
2021/10/25 01:54:38;;;;;;;1.98;1.42;;;5.80;80.80;;;;;;6168892;23;20396;-95
2021/10/25 01:57:08;;;;;;;1.40;1.00;;;5.80;80.30;;;;;;6167252;23;20048;-95
2021/10/25 01:59:36;;;;;;;3.35;1.65;;;5.80;80.30;;;;;;6168933;23;20001;-95
2021/10/25 02:02:10;;;;;;;1.50;1.25;;;5.80;81.00;;;;;;6196262;23;20027;-94
2021/10/25 02:04:43;;;;;;;1.85;1.70;;;5.70;81.20;;;;;;6168320;23;20427;-94
2021/10/25 02:07:16;;;;;;;1.98;1.23;;;5.70;81.50;;;;;;6164457;23;20020;-94
2021/10/25 02:09:52;;;;;;;1.15;1.00;;;5.70;81.70;;;;;;6166604;23;20504;-93
2021/10/25 02:12:30;;;;;;;;;;;;;;;;;;;;;
2021/10/25 02:14:56;;;;;;;1.58;1.17;;;5.70;81.00;;;;;;6191895;23;20072;-96
2021/10/25 02:17:24;;;;;;;1.30;1.17;;;5.60;80.80;;;;;;6164768;23;20288;-95
2021/10/25 02:23:01;;;;;;;1.30;1.20;;;5.60;81.20;;;;;;6189911;23;20037;-95
2021/10/25 02:25:37;;;;;;;1.67;0.95;;;5.60;82.20;;;;;;6163278;23;19994;-95
2021/10/25 02:28:07;;;;;;;2.25;1.58;;;5.50;82.40;;;;;;6162805;23;20024;-95
2021/10/25 02:30:39;;;;;;;2.13;1.60;;;5.50;83.10;;;;;;6162142;23;20011;-95
2021/10/25 02:33:07;;;;;;;1.58;1.17;;;5.40;83.60;;;;;;6162006;23;20009;-96
2021/10/25 02:35:33;;;;;;;1.65;1.35;;;5.40;83.60;;;;;;6162018;23;20476;-94
2021/10/25 02:38:02;;;;;;;1.27;1.13;;;5.40;85.70;;;;;;6162235;23;20028;-95
2021/10/25 02:40:32;;;;;;;1.02;1.00;;;5.30;85.30;;;;;;6188243;23;20408;-95
2021/10/25 02:43:00;;;;;;;1.20;0.95;;;5.20;87.60;;;;;;6162525;23;20005;-95
2021/10/25 02:45:28;;;;;;;2.35;0.90;;;5.20;87.20;;;;;;6161517;23;20085;-93
2021/10/25 02:47:54;;;;;;;1.00;0.95;;;5.10;86.30;;;;;;6162138;23;20001;-94
2021/10/25 02:50:24;;;;;;;0.73;0.73;;;5.00;86.50;;;;;;6161505;23;20055;-95
2021/10/25 02:52:49;;;;;;;1.25;0.90;;;5.00;87.40;;;;;;6162771;23;20000;-95
2021/10/25 02:55:15;;;;;;;2.63;1.88;;;4.90;87.40;;;;;;6163111;23;20001;-95
2021/10/25 02:57:43;;;;;;;1.25;1.15;;;4.90;88.20;;;;;;6188548;23;20001;-95
2021/10/25 03:00:16;;;;;;;1.00;0.90;;;4.80;88.00;;;;;;6163309;23;20456;-95
2021/10/25 03:02:52;;;;;;;2.58;1.08;;;4.80;88.30;;;;;;6161441;23;20091;-95
2021/10/25 03:05:23;;;;;;;2.35;1.33;;;4.80;88.10;;;;;;6163262;23;20044;-94
2021/10/25 03:07:51;;;;;;;3.75;1.80;;;4.70;88.30;;;;;;6165044;23;20048;-95
2021/10/25 03:10:21;;;;;;;2.92;1.27;;;4.70;88.70;;;;;;6165880;23;20041;-94
2021/10/25 03:12:52;;;;;;;0.82;0.82;;;4.70;89.30;;;;;;6163595;23;20005;-94
2021/10/25 03:15:21;;;;;;;1.63;1.15;;;4.60;89.60;;;;;;6190267;23;20424;-95
2021/10/25 03:18:14;;;;;;;0.93;0.88;;;4.60;89.60;;;;;;6164354;23;20432;-94
2021/10/25 03:20:50;;;;;;;;;;;;;;;;;;;;;
2021/10/25 03:23:24;;;;;;;0.80;0.80;;;4.60;89.80;;;;;;6189467;23;20084;-95
2021/10/25 03:26:10;;;;;;;0.93;0.88;;;4.50;90.20;;;;;;6162751;23;20000;-95
2021/10/25 03:28:48;;;;;;;;;;;;;;;;;;;;;
2021/10/25 03:31:18;;;;;;;1.25;1.15;;;4.50;90.30;;;;;;6189195;23;20075;-95
2021/10/25 03:33:49;;;;;;;1.48;1.38;;;4.50;90.50;;;;;;6162861;23;19997;-95
2021/10/25 03:36:25;;;;;;;1.80;1.30;;;4.40;90.20;;;;;;6163650;23;20008;-94
2021/10/25 03:38:54;;;;;;;4.18;1.85;;;4.40;90.50;;;;;;6163874;23;19994;-94
2021/10/25 03:41:33;;;;;;;1.85;0.85;;;4.40;90.50;;;;;;6163071;23;20016;-94
2021/10/25 03:44:07;;;;;;;2.05;1.38;;;4.40;90.70;;;;;;6163623;23;20001;-94
2021/10/25 03:46:56;;;;;;;1.10;1.00;;;4.30;90.80;;;;;;6163221;23;20001;-94
2021/10/25 03:52:00;;;;;;;1.33;0.80;;;4.30;91.10;;;;;;6199837;23;19997;-94
2021/10/25 03:54:43;;;;;;;2.15;1.58;;;4.30;90.90;;;;;;6164303;23;20043;-95
2021/10/25 03:57:35;;;;;;;1.75;1.35;;;4.20;90.80;;;;;;6162624;23;19993;-94
2021/10/25 04:26:57;;;;;;;2.30;1.40;;;4.00;91.40;;;;;;6191700;23;20007;-96
2021/10/25 04:29:26;;;;;;;2.15;1.33;;;4.00;91.40;;;;;;6164031;23;19997;-94
2021/10/25 04:34:51;;;;;;;1.30;1.15;;;4.00;91.60;;;;;;6143832;23;20054;-95
2021/10/25 04:37:22;;;;;;;2.10;1.63;;;4.00;91.50;;;;;;6135092;23;20002;-95
2021/10/25 04:39:50;;;;;;;1.23;1.00;;;3.90;91.30;;;;;;6135535;23;20072;-95
2021/10/25 04:42:22;;;;;;;1.33;1.20;;;4.00;91.30;;;;;;6133737;23;20084;-95
2021/10/25 04:44:51;;;;;;;0.95;0.90;;;3.90;91.30;;;;;;6136700;23;20002;-96
2021/10/25 04:47:22;;;;;;;1.50;1.10;;;4.00;91.40;;;;;;6137126;23;20357;-95
2021/10/25 04:49:51;;;;;;;1.05;1.05;;;4.00;91.30;;;;;;6136891;23;20085;-94
2021/10/25 04:53:10;;;;;;;;;;;;;;;;;;;;;
2021/10/25 04:55:46;;;;;;;2.20;1.30;;;4.00;91.30;;;;;;6164364;23;20040;-95
2021/10/25 04:58:29;;;;;;;1.40;1.30;;;4.10;91.20;;;;;;6141944;23;20086;-95
2021/10/25 05:01:09;;;;;;;0.98;0.98;;;4.10;91.30;;;;;;6140506;23;19993;-96
2021/10/25 05:04:32;;;;;;;1.00;0.90;;;4.10;91.30;;;;;;6143380;23;20001;-95
2021/10/25 05:07:05;;;;;;;3.70;1.40;;;4.20;91.20;;;;;;6150752;23;20008;-96
2021/10/25 05:09:58;;;;;;;1.90;1.63;;;4.20;91.00;;;;;;6148425;23;20085;-96
2021/10/25 05:12:26;;;;;;;2.20;1.77;;;4.30;91.00;;;;;;6145915;23;19997;-94
2021/10/25 05:18:40;;;;;;;;;;;;;;;;;;;;;
2021/10/25 05:21:36;;;;;;;;;;;;;;;;;;;;;
2021/10/25 05:24:25;;;;;;;1.95;1.33;;;4.50;90.80;;;;;;6123337;23;20002;-95
2021/10/25 05:27:11;;;;;;;;;;;;;;;;;;;;;
2021/10/25 05:29:58;;;;;;;1.70;1.48;;;4.50;90.90;;;;;;6172683;23;19997;-95
2021/10/25 05:35:55;;;;;;;0.90;0.90;;;4.70;90.80;;;;;;6173787;23;20016;-94
2021/10/25 05:38:54;;;;;;;;;;;;;;;;;;;;;
2021/10/25 05:42:07;;;;;;;;;;;;;;;;;;;;;
2021/10/25 05:45:44;;;;;;;2.25;1.55;;;5.00;90.60;;;;;;6172318;23;20018;-96
2021/10/25 05:49:12;;;;;;;2.58;1.80;;;5.10;90.50;;;;;;6056063;23;20007;-94
2021/10/25 05:52:18;;;;;;;1.55;1.45;;;5.20;90.20;;;;;;6082817;23;20020;-96
2021/10/25 05:55:31;;;;;;;;;;;;;;;;;;;;;
2021/10/25 05:58:12;;;;;;;3.80;2.10;;;5.20;89.90;;;;;;6169925;23;19994;-94
2021/10/25 06:01:38;;;;;;;;;;;;;;;;;;;;;
2021/10/25 06:04:10;;;;;;;;;;;5.40;89.30;;;;;;6173720;23;20024;-96
2021/10/25 06:10:39;;;;;;;2.72;2.00;;;5.50;88.80;;;;;;6219106;22;20012;-96
2021/10/25 06:41:03;;;;;;;2.55;1.58;;;6.00;85.50;;;;;;5988701;24;20023;-95
2021/10/25 06:43:50;;;;;;;1.92;1.13;;;6.20;85.60;;;;;;6029625;23;20011;-95
2021/10/25 06:53:31;;;;;;;1.45;1.35;;;6.50;82.20;;;;;;6019938;23;20018;-94
2021/10/25 07:08:56;;;;;;;4.03;1.83;;;6.70;81.70;;;;;;6179610;22;21200;31
2021/10/25 07:18:56;;;;;;;;;;;;;;;;;;;;;
2021/10/25 08:47:34;;;;;;;2.33;1.70;;;7.30;74.00;;;;;;5852126;24;20006;-93
2021/10/25 08:50:41;;;;;;;2.35;1.83;;;7.30;73.80;;;;;;5759721;24;20012;-91
2021/10/25 09:36:51;;;;;;;1.77;1.30;;;7.90;64.50;;;;;;6199659;23;21356;-91
2021/10/25 09:39:27;;;;;;;1.00;0.90;;;7.90;66.50;;;;;;6186192;23;20020;-90
2021/10/25 10:19:11;;;;;;;1.55;1.13;;;8.50;64.20;;;;;;5982376;24;20090;-92
2021/10/25 10:29:59;;;;;;;;;;;;;;;;;;;;;
2021/10/25 11:41:06;;;;;;;;;;;;;;;;;;;;;
2021/10/25 15:40:26;;;;;;;;;;;;;;;;;;;;;
2021/10/25 15:43:37;;;;;;;7.53;3.60;;;6.50;58.60;;;;;;6219800;23;20149;-92
2021/10/25 15:50:58;;;;;;;;;;;;;;;;;;;;;
2021/10/25 15:57:19;;;;;;;;;;;;;;;;;;;;;
2021/10/25 16:00:36;;;;;;;;;;;;;;;;;;;;;
2021/10/25 16:03:32;;;;;;;7.03;3.50;;;6.10;60.10;;;;;;5984622;24;20106;-93
2021/10/25 16:27:41;;;;;;;8.40;4.30;;;5.70;61.50;;;;;;5828954;24;20096;-94
2021/10/25 17:57:48;;;;;;;;;;;;;;;;;;;;;
2021/10/25 18:11:59;;;;;;;;;;;;;;;;;;;;;
2021/10/25 18:15:03;;;;;;;;;;;;;;;;;;;;;
2021/10/25 18:25:52;;;;;;;;;;;;;;;;;;;;;
2021/10/25 18:29:11;;;;;;;;;;;;;;;;;;;;;
2021/10/25 18:32:06;;;;;;;15.40;7.60;;;4.40;68.20;;;;;;5927629;24;20095;-93
2021/10/25 18:45:48;;;;;;;;;;;;;;;;;;;;;
2021/10/25 18:56:03;;;;;;;;;;;;;;;;;;;;;
2021/10/25 19:24:08;;;;;;;;;;;;;;;;;;;;;
2021/10/25 19:40:40;;;;;;;;;;;;;;;;;;;;;
2021/10/25 19:47:28;;;;;;;;;;;;;;;;;;;;;
2021/10/25 19:54:18;;;;;;;30.70;12.52;;;3.60;72.60;;;;;;6038251;23;20038;-93
2021/10/25 19:57:33;;;;;;;;;;;;;;;;;;;;;
2021/10/25 20:10:58;;;;;;;28.48;11.05;;;3.50;73.00;;;;;;6099873;23;20008;-95
2021/10/25 20:25:22;;;;;;;27.73;11.23;;;3.40;73.40;;;;;;6187219;23;20044;-93
2021/10/25 20:29:07;;;;;;;;;;;;;;;;;;;;;
2021/10/25 20:32:15;;;;;;;;;;;;;;;;;;;;;
2021/10/25 20:35:55;;;;;;;;;;;;;;;;;;;;;
2021/10/25 20:38:41;;;;;;;40.05;16.30;;;3.30;74.70;;;;;;6168583;23;20019;-93
2021/10/25 20:52:25;;;;;;;34.67;13.50;;;3.20;74.40;;;;;;6188244;23;20031;-93
2021/10/25 20:55:24;;;;;;;;;;;;;;;;;;;;;
2021/10/25 21:02:35;;;;;;;28.77;12.55;;;3.10;75.00;;;;;;6182173;23;20016;-93
2021/10/25 21:11:41;;;;;;;;;;;;;;;;;;;;;
2021/10/25 21:14:56;;;;;;;;;;;;;;;;;;;;;
2021/10/25 21:28:05;;;;;;;;;;;;;;;;;;;;;
2021/10/25 21:34:21;;;;;;;16.60;8.43;;;2.80;76.80;;;;;;6185745;23;20075;-93
2021/10/25 21:40:16;;;;;;;26.77;11.80;;;2.70;76.80;;;;;;6201447;23;20005;-92
2021/10/25 21:43:27;;;;;;;23.27;9.82;;;2.70;76.70;;;;;;6190421;23;20020;-93
2021/10/25 21:46:57;;;;;;;24.88;10.35;;;2.70;77.10;;;;;;6178243;23;20012;-93
2021/10/25 21:54:25;;;;;;;;;;;;;;;;;;;;;
2021/10/25 21:57:38;;;;;;;;;;;;;;;;;;;;;
2021/10/25 22:04:20;;;;;;;;;;;;;;;;;;;;;
2021/10/25 22:07:32;;;;;;;;;;;;;;;;;;;;;
2021/10/25 22:14:22;;;;;;;;;;;;;;;;;;;;;
2021/10/25 22:27:18;;;;;;;;;;;;;;;;;;;;;
2021/10/25 22:30:28;;;;;;;25.02;8.48;;;2.30;79.20;;;;;;6205043;23;20092;-92
2021/10/25 22:37:07;;;;;;;;;;;;;;;;;;;;;
2021/10/25 22:40:25;;;;;;;;;;;;;;;;;;;;;
2021/10/25 22:43:15;;;;;;;;;;;;;;;;;;;;;
2021/10/25 22:46:05;;;;;;;22.95;9.77;;;2.10;79.90;;;;;;6132899;23;20086;-93
2021/10/25 22:52:33;;;;;;;28.17;7.95;;;2.00;80.50;;;;;;6205645;23;20416;-92
2021/10/25 22:55:52;;;;;;;;;;;;;;;;;;;;;
2021/10/25 23:05:51;;;;;;;16.25;8.98;;;1.90;81.00;;;;;;6161939;23;20030;-94
2021/10/25 23:09:10;;;;;;;;;;;;;;;;;;;;;
2021/10/25 23:12:04;;;;;;;18.60;9.15;;;1.90;82.20;;;;;;6208496;23;20080;-93
2021/10/25 23:14:51;;;;;;;30.10;15.63;;;1.90;82.10;;;;;;6191628;23;19993;-93
2021/10/25 23:17:39;;;;;;;;;;;;;;;;;;;;;
2021/10/25 23:20:49;;;;;;;29.70;14.40;;;1.90;82.20;;;;;;6218268;23;20353;-92
2021/10/25 23:26:48;;;;;;;27.90;12.93;;;1.80;82.60;;;;;;6206259;23;20071;-94
2021/10/25 23:29:44;;;;;;;19.50;10.05;;;1.80;82.70;;;;;;6191904;23;19992;-93
2021/10/25 23:36:15;;;;;;;;;;;;;;;;;;;;;
2021/10/25 23:39:28;;;;;;;22.85;9.55;;;1.70;84.10;;;;;;6216341;23;20094;-91
2021/10/25 23:42:34;;;;;;;;;;;;;;;;;;;;;
2021/10/25 23:45:37;;;;;;;;;;;;;;;;;;;;;
2021/10/25 23:52:16;;;;;;;;;;;;;;;;;;;;;
2021/10/25 23:55:33;;;;;;;;;;;;;;;;;;;;;
2021/10/25 23:58:27;;;;;;;16.73;8.98;;;1.70;84.40;;;;;;6210824;23;20009;-92
